Wetterdaten: Woche 30.03.09 - 05.04.09 (KW14)
Datum Zeit Temp. Innen Temp. Aussen Feuchte Inne Feuchte Auss Luftdruck Regen ab 0,1 Wind
30.03.2009 00:00 17,5 C 5,0 C 44 % 78 % 1015,5 hPa 0,0 l/m 0,0 km/h (0 Bft)
30.03.2009 01:00 17,3 C 4,5 C 44 % 79 % 1016,4 hPa 0,0 l/m 0,0 km/h (0 Bft)
30.03.2009 02:00 17,2 C 3,4 C 44 % 80 % 1016,5 hPa 0,0 l/m 0,0 km/h (0 Bft)
30.03.2009 03:00 17,2 C 2,2 C 44 % 81 % 1016,5 hPa 0,0 l/m 0,0 km/h (0 Bft)
30.03.2009 04:00 17,2 C 1,2 C 43 % 82 % 1017,4 hPa 0,0 l/m 0,0 km/h (0 Bft)
30.03.2009 05:00 17,2 C 0,7 C 43 % 83 % 1017,7 hPa 0,0 l/m 0,0 km/h (0 Bft)
30.03.2009 06:00 17,1 C 0,3 C 43 % 84 % 1018,6 hPa 0,0 l/m 0,0 km/h (0 Bft)
30.03.2009 07:00 17,2 C 0,1 C 42 % 84 % 1018,7 hPa 0,0 l/m 0,0 km/h (0 Bft)
30.03.2009 08:00 17,1 C 0,3 C 42 % 85 % 1019,6 hPa 0,0 l/m 0,0 km/h (0 Bft)
30.03.2009 09:00 17,0 C 1,6 C 42 % 86 % 1020,3 hPa 0,0 l/m 0,1 km/h (0 Bft)
30.03.2009 10:00 16,8 C 3,7 C 43 % 86 % 1020,5 hPa 0,0 l/m 0,0 km/h (0 Bft)
30.03.2009 11:00 16,8 C 6,6 C 45 % 81 % 1020,6 hPa 0,0 l/m 0,3 km/h (0 Bft)
30.03.2009 12:00 16,8 C 8,8 C 45 % 69 % 1021,4 hPa 0,0 l/m 1,1 km/h (1 Bft)
30.03.2009 13:00 16,8 C 10,5 C 46 % 63 % 1021,4 hPa 0,0 l/m 1,6 km/h (1 Bft)
30.03.2009 14:00 16,9 C 10,6 C 46 % 61 % 1021,4 hPa 0,0 l/m 0,0 km/h (0 Bft)
30.03.2009 15:00 17,0 C 11,0 C 46 % 59 % 1021,3 hPa 0,0 l/m 0,8 km/h (0 Bft)
30.03.2009 16:00 17,2 C 12,0 C 40 % 53 % 1021,0 hPa 0,0 l/m 1,8 km/h (1 Bft)
30.03.2009 17:00 16,9 C 12,6 C 39 % 50 % 1021,2 hPa 0,0 l/m 2,7 km/h (1 Bft)
30.03.2009 18:00 17,3 C 11,8 C 45 % 49 % 1021,4 hPa 0,0 l/m 0,6 km/h (0 Bft)
30.03.2009 19:00 17,6 C 10,7 C 45 % 52 % 1021,4 hPa 0,0 l/m 0,0 km/h (0 Bft)
30.03.2009 20:00 17,8 C 8,7 C 44 % 58 % 1022,1 hPa 0,0 l/m 0,0 km/h (0 Bft)
30.03.2009 21:00 18,1 C 6,5 C 43 % 64 % 1022,5 hPa 0,0 l/m 0,0 km/h (0 Bft)
30.03.2009 22:00 18,1 C 4,8 C 43 % 68 % 1022,8 hPa 0,0 l/m 0,0 km/h (0 Bft)
30.03.2009 23:00 17,8 C 3,3 C 42 % 71 % 1023,5 hPa 0,0 l/m 0,0 km/h (0 Bft)
31.03.2009 00:00 17,6 C 2,2 C 42 % 73 % 1023,6 hPa 0,0 l/m 0,0 km/h (0 Bft)
31.03.2009 01:00 17,5 C 1,3 C 42 % 75 % 1023,6 hPa 0,0 l/m 0,0 km/h (0 Bft)
31.03.2009 02:00 17,4 C 0,7 C 42 % 76 % 1023,8 hPa 0,0 l/m 0,0 km/h (0 Bft)
31.03.2009 03:00 17,3 C 0,1 C 41 % 78 % 1023,9 hPa 0,0 l/m 0,0 km/h (0 Bft)
31.03.2009 04:00 17,2 C -0,1 C 41 % 79 % 1023,6 hPa 0,0 l/m 0,0 km/h (0 Bft)
31.03.2009 05:00 17,1 C -0,2 C 41 % 80 % 1023,6 hPa 0,0 l/m 0,0 km/h (0 Bft)
31.03.2009 06:00 17,1 C -0,4 C 41 % 80 % 1023,6 hPa 0,0 l/m 0,0 km/h (0 Bft)
31.03.2009 07:00 17,0 C -0,5 C 40 % 81 % 1024,2 hPa 0,0 l/m 0,0 km/h (0 Bft)
31.03.2009 08:00 17,0 C -0,2 C 40 % 81 % 1024,6 hPa 0,0 l/m 0,0 km/h (0 Bft)
31.03.2009 09:00 16,8 C 1,4 C 41 % 83 % 1024,6 hPa 0,0 l/m 0,0 km/h (0 Bft)
31.03.2009 10:00 16,8 C 4,3 C 42 % 83 % 1024,5 hPa 0,0 l/m 0,0 km/h (0 Bft)
31.03.2009 11:00 16,8 C 7,9 C 42 % 75 % 1024,5 hPa 0,0 l/m 0,3 km/h (0 Bft)
31.03.2009 12:00 16,8 C 10,8 C 42 % 65 % 1024,3 hPa 0,0 l/m 0,0 km/h (0 Bft)
31.03.2009 13:00 16,8 C 13,6 C 42 % 54 % 1023,4 hPa 0,0 l/m 1,0 km/h (0 Bft)
31.03.2009 14:00 17,0 C 14,9 C 42 % 49 % 1022,8 hPa 0,0 l/m 5,9 km/h (2 Bft)
31.03.2009 15:00 17,4 C 15,6 C 41 % 46 % 1022,3 hPa 0,0 l/m 6,3 km/h (2 Bft)
31.03.2009 16:00 18,0 C 15,4 C 40 % 44 % 1021,6 hPa 0,0 l/m 1,8 km/h (1 Bft)
31.03.2009 17:00 17,9 C 14,7 C 40 % 45 % 1021,4 hPa 0,0 l/m 0,0 km/h (0 Bft)
31.03.2009 18:00 18,0 C 13,5 C 40 % 47 % 1021,4 hPa 0,0 l/m 0,2 km/h (0 Bft)
31.03.2009 19:00 18,2 C 12,3 C 40 % 50 % 1021,0 hPa 0,0 l/m 0,0 km/h (0 Bft)
31.03.2009 20:00 18,3 C 10,7 C 40 % 54 % 1021,4 hPa 0,0 l/m 0,0 km/h (0 Bft)
31.03.2009 21:00 18,2 C 8,9 C 40 % 57 % 1021,4 hPa 0,0 l/m 0,0 km/h (0 Bft)
31.03.2009 22:00 18,2 C 7,2 C 40 % 61 % 1021,5 hPa 0,0 l/m 0,0 km/h (0 Bft)
31.03.2009 23:00 18,0 C 5,5 C 40 % 65 % 1021,5 hPa 0,0 l/m 0,0 km/h (0 Bft)
01.04.2009 00:00 18,0 C 4,2 C 40 % 68 % 1021,4 hPa 0,0 l/m 0,0 km/h (0 Bft)
01.04.2009 01:00 17,8 C 3,2 C 40 % 70 % 1020,7 hPa 0,0 l/m 0,0 km/h (0 Bft)
01.04.2009 02:00 17,7 C 2,8 C 40 % 73 % 1020,5 hPa 0,0 l/m 0,0 km/h (0 Bft)
01.04.2009 03:00 17,6 C 2,5 C 40 % 74 % 1020,5 hPa 0,0 l/m 0,0 km/h (0 Bft)
01.04.2009 04:00 17,4 C 2,9 C 40 % 76 % 1020,5 hPa 0,0 l/m 0,0 km/h (0 Bft)
01.04.2009 05:00 17,4 C 2,5 C 40 % 77 % 1020,5 hPa 0,0 l/m 0,0 km/h (0 Bft)
01.04.2009 06:00 17,4 C 2,5 C 41 % 78 % 1020,5 hPa 0,0 l/m 0,0 km/h (0 Bft)
01.04.2009 07:00 17,4 C 2,5 C 41 % 79 % 1020,5 hPa 0,0 l/m 0,0 km/h (0 Bft)
01.04.2009 08:00 17,4 C 3,8 C 41 % 81 % 1020,5 hPa 0,0 l/m 0,0 km/h (0 Bft)
01.04.2009 09:00 17,3 C 5,7 C 41 % 78 % 1020,5 hPa 0,0 l/m 0,0 km/h (0 Bft)
01.04.2009 10:00 17,3 C 8,6 C 41 % 71 % 1020,5 hPa 0,0 l/m 0,0 km/h (0 Bft)
01.04.2009 11:00 17,2 C 11,8 C 41 % 62 % 1020,5 hPa 0,0 l/m 2,5 km/h (1 Bft)
01.04.2009 12:00 17,3 C 14,1 C 41 % 54 % 1020,4 hPa 0,0 l/m 1,3 km/h (1 Bft)
01.04.2009 13:00 17,4 C 16,0 C 41 % 48 % 1019,9 hPa 0,0 l/m 5,7 km/h (1 Bft)
01.04.2009 14:00 17,6 C 17,4 C 40 % 45 % 1019,3 hPa 0,0 l/m 4,9 km/h (1 Bft)
01.04.2009 15:00 18,0 C 18,4 C 40 % 42 % 1019,0 hPa 0,0 l/m 3,0 km/h (1 Bft)
01.04.2009 16:00 18,5 C 18,5 C 39 % 41 % 1018,3 hPa 0,0 l/m 9,1 km/h (2 Bft)
01.04.2009 17:00 18,4 C 17,8 C 39 % 42 % 1018,3 hPa 0,0 l/m 3,6 km/h (1 Bft)
01.04.2009 18:00 18,5 C 16,2 C 40 % 46 % 1018,3 hPa 0,0 l/m 0,2 km/h (0 Bft)
01.04.2009 19:00 18,8 C 14,8 C 40 % 49 % 1018,3 hPa 0,0 l/m 0,0 km/h (0 Bft)
01.04.2009 20:00 18,8 C 13,1 C 40 % 51 % 1018,9 hPa 0,0 l/m 0,0 km/h (0 Bft)
01.04.2009 21:00 18,8 C 11,8 C 40 % 55 % 1019,4 hPa 0,0 l/m 0,0 km/h (0 Bft)
01.04.2009 22:00 18,8 C 10,9 C 40 % 59 % 1019,4 hPa 0,0 l/m 0,0 km/h (0 Bft)
01.04.2009 23:00 18,8 C 10,0 C 40 % 61 % 1019,4 hPa 0,0 l/m 0,0 km/h (0 Bft)
02.04.2009 00:00 18,6 C 9,3 C 41 % 64 % 1019,4 hPa 0,0 l/m 0,0 km/h (0 Bft)
02.04.2009 01:00 18,5 C 8,7 C 41 % 66 % 1019,4 hPa 0,0 l/m 0,0 km/h (0 Bft)
02.04.2009 02:00 18,4 C 8,1 C 41 % 68 % 1019,4 hPa 0,0 l/m 0,0 km/h (0 Bft)
02.04.2009 03:00 18,3 C 7,7 C 41 % 69 % 1019,5 hPa 0,0 l/m 0,0 km/h (0 Bft)
02.04.2009 04:00 18,2 C 7,5 C 41 % 71 % 1018,7 hPa 0,0 l/m 0,0 km/h (0 Bft)
02.04.2009 05:00 18,1 C 7,6 C 41 % 72 % 1018,5 hPa 0,0 l/m 0,0 km/h (0 Bft)
02.04.2009 06:00 18,1 C 7,4 C 42 % 73 % 1018,5 hPa 0,0 l/m 0,0 km/h (0 Bft)
02.04.2009 07:00 18,2 C 7,2 C 42 % 75 % 1018,5 hPa 0,0 l/m 0,0 km/h (0 Bft)
02.04.2009 08:00 18,2 C 7,5 C 45 % 76 % 1018,5 hPa 0,0 l/m 0,2 km/h (0 Bft)
02.04.2009 09:00 18,1 C 8,6 C 47 % 75 % 1018,4 hPa 0,0 l/m 0,1 km/h (0 Bft)
02.04.2009 10:00 18,0 C 10,8 C 47 % 70 % 1018,4 hPa 0,0 l/m 0,0 km/h (0 Bft)
02.04.2009 11:00 18,0 C 13,9 C 47 % 62 % 1018,4 hPa 0,0 l/m 1,3 km/h (1 Bft)
02.04.2009 12:00 18,0 C 16,5 C 47 % 56 % 1017,8 hPa 0,0 l/m 1,6 km/h (1 Bft)
02.04.2009 13:00 18,2 C 18,5 C 46 % 51 % 1016,9 hPa 0,0 l/m 1,1 km/h (0 Bft)
02.04.2009 14:00 18,4 C 20,3 C 46 % 47 % 1016,2 hPa 0,0 l/m 1,1 km/h (0 Bft)
02.04.2009 15:00 18,8 C 21,5 C 45 % 45 % 1015,4 hPa 0,0 l/m 0,1 km/h (0 Bft)
02.04.2009 16:00 19,3 C 21,9 C 45 % 43 % 1015,2 hPa 0,0 l/m 0,6 km/h (0 Bft)
02.04.2009 17:00 19,3 C 21,4 C 44 % 43 % 1014,8 hPa 0,0 l/m 1,5 km/h (1 Bft)
02.04.2009 18:00 19,4 C 19,8 C 44 % 46 % 1014,5 hPa 0,0 l/m 0,8 km/h (0 Bft)
02.04.2009 19:00 19,6 C 18,4 C 44 % 49 % 1014,6 hPa 0,0 l/m 0,1 km/h (0 Bft)
02.04.2009 20:00 19,6 C 16,5 C 44 % 52 % 1015,3 hPa 0,0 l/m 0,0 km/h (0 Bft)
02.04.2009 21:00 19,6 C 14,7 C 44 % 56 % 1015,3 hPa 0,0 l/m 0,0 km/h (0 Bft)
02.04.2009 22:00 19,6 C 13,2 C 45 % 60 % 1015,4 hPa 0,0 l/m 0,0 km/h (0 Bft)
02.04.2009 23:00 19,5 C 11,8 C 45 % 63 % 1015,4 hPa 0,0 l/m 0,0 km/h (0 Bft)
03.04.2009 00:00 19,4 C 10,5 C 45 % 66 % 1015,4 hPa 0,0 l/m 0,0 km/h (0 Bft)
03.04.2009 01:00 19,3 C 9,3 C 45 % 69 % 1015,4 hPa 0,0 l/m 0,0 km/h (0 Bft)
03.04.2009 02:00 19,2 C 8,3 C 45 % 71 % 1015,4 hPa 0,0 l/m 0,0 km/h (0 Bft)
03.04.2009 03:00 19,1 C 7,9 C 45 % 73 % 1015,4 hPa 0,0 l/m 0,0 km/h (0 Bft)
03.04.2009 04:00 19,0 C 7,3 C 46 % 75 % 1015,4 hPa 0,0 l/m 0,0 km/h (0 Bft)
03.04.2009 05:00 18,8 C 6,5 C 45 % 75 % 1015,1 hPa 0,0 l/m 0,0 km/h (0 Bft)
03.04.2009 06:00 18,8 C 5,9 C 45 % 77 % 1014,9 hPa 0,0 l/m 0,0 km/h (0 Bft)
03.04.2009 07:00 18,8 C 5,4 C 45 % 77 % 1015,5 hPa 0,0 l/m 0,0 km/h (0 Bft)
03.04.2009 08:00 18,8 C 5,9 C 46 % 79 % 1015,5 hPa 0,0 l/m 0,0 km/h (0 Bft)
03.04.2009 09:00 18,8 C 8,3 C 46 % 81 % 1015,4 hPa 0,0 l/m 0,0 km/h (0 Bft)
03.04.2009 10:00 18,7 C 12,2 C 46 % 76 % 1015,4 hPa 0,0 l/m 0,8 km/h (0 Bft)
03.04.2009 11:00 18,7 C 16,3 C 47 % 65 % 1015,3 hPa 0,0 l/m 4,8 km/h (1 Bft)
03.04.2009 12:00 18,8 C 19,2 C 47 % 58 % 1015,3 hPa 0,0 l/m 4,2 km/h (1 Bft)
03.04.2009 13:00 18,9 C 21,4 C 47 % 52 % 1014,6 hPa 0,0 l/m 0,1 km/h (0 Bft)
03.04.2009 14:00 19,1 C 23,1 C 47 % 47 % 1014,2 hPa 0,0 l/m 0,3 km/h (0 Bft)
03.04.2009 15:00 19,4 C 24,2 C 47 % 44 % 1014,2 hPa 0,0 l/m 0,0 km/h (0 Bft)
03.04.2009 16:00 20,0 C 24,6 C 46 % 42 % 1014,2 hPa 0,0 l/m 0,3 km/h (0 Bft)
03.04.2009 17:00 20,0 C 24,1 C 46 % 42 % 1013,8 hPa 0,0 l/m 3,3 km/h (1 Bft)
03.04.2009 18:00 20,3 C 22,5 C 46 % 45 % 1013,2 hPa 0,0 l/m 0,4 km/h (0 Bft)
03.04.2009 19:00 20,5 C 21,0 C 46 % 48 % 1013,6 hPa 0,0 l/m 0,0 km/h (0 Bft)
03.04.2009 20:00 20,4 C 18,7 C 46 % 53 % 1014,3 hPa 0,0 l/m 0,0 km/h (0 Bft)
03.04.2009 21:00 20,4 C 16,4 C 47 % 59 % 1014,3 hPa 0,0 l/m 0,0 km/h (0 Bft)
03.04.2009 22:00 20,5 C 15,5 C 47 % 63 % 1014,8 hPa 0,0 l/m 0,0 km/h (0 Bft)
03.04.2009 23:00 20,9 C 15,3 C 47 % 66 % 1015,5 hPa 0,0 l/m 0,1 km/h (0 Bft)
04.04.2009 00:00 20,6 C 14,8 C 47 % 69 % 1016,3 hPa 0,0 l/m 1,0 km/h (0 Bft)
04.04.2009 01:00 20,4 C 14,0 C 48 % 70 % 1016,3 hPa 0,0 l/m 0,5 km/h (0 Bft)
04.04.2009 02:00 20,2 C 13,2 C 48 % 72 % 1016,4 hPa 0,0 l/m 0,0 km/h (0 Bft)
04.04.2009 03:00 20,1 C 12,8 C 48 % 74 % 1016,4 hPa 0,0 l/m 0,0 km/h (0 Bft)
04.04.2009 04:00 20,0 C 12,4 C 49 % 77 % 1016,4 hPa 0,0 l/m 0,0 km/h (0 Bft)
04.04.2009 05:00 20,0 C 12,0 C 49 % 78 % 1016,4 hPa 0,0 l/m 0,0 km/h (0 Bft)
04.04.2009 06:00 19,9 C 11,7 C 50 % 79 % 1016,4 hPa 0,0 l/m 0,0 km/h (0 Bft)
04.04.2009 07:00 19,8 C 11,0 C 50 % 80 % 1016,4 hPa 0,0 l/m 0,0 km/h (0 Bft)
04.04.2009 08:00 19,8 C 11,0 C 51 % 81 % 1016,9 hPa 0,0 l/m 0,0 km/h (0 Bft)
04.04.2009 09:00 19,7 C 11,6 C 51 % 83 % 1017,4 hPa 0,0 l/m 0,0 km/h (0 Bft)
04.04.2009 10:00 19,7 C 12,5 C 51 % 83 % 1018,2 hPa 0,0 l/m 0,1 km/h (0 Bft)
04.04.2009 11:00 19,6 C 12,3 C 51 % 81 % 1018,5 hPa 0,0 l/m 0,2 km/h (0 Bft)
04.04.2009 12:00 19,6 C 12,1 C 51 % 80 % 1019,4 hPa 0,0 l/m 1,6 km/h (1 Bft)
04.04.2009 13:00 19,6 C 12,2 C 51 % 79 % 1019,4 hPa 0,0 l/m 3,4 km/h (1 Bft)
04.04.2009 14:00 19,6 C 13,0 C 51 % 75 % 1019,4 hPa 0,0 l/m 1,0 km/h (0 Bft)
04.04.2009 15:00 19,9 C 15,0 C 50 % 69 % 1019,3 hPa 0,0 l/m 1,2 km/h (1 Bft)
04.04.2009 16:00 20,2 C 16,5 C 49 % 64 % 1019,3 hPa 0,0 l/m 1,7 km/h (1 Bft)
04.04.2009 17:00 20,2 C 16,9 C 49 % 60 % 1019,3 hPa 0,0 l/m 3,8 km/h (1 Bft)
04.04.2009 18:00 20,2 C 16,1 C 49 % 59 % 1019,3 hPa 0,0 l/m 0,5 km/h (0 Bft)
04.04.2009 19:00 20,3 C 15,2 C 49 % 62 % 1019,3 hPa 0,0 l/m 0,1 km/h (0 Bft)
04.04.2009 20:00 20,3 C 13,7 C 48 % 66 % 1020,0 hPa 0,0 l/m 0,0 km/h (0 Bft)
04.04.2009 21:00 20,3 C 12,4 C 49 % 71 % 1020,9 hPa 0,0 l/m 0,0 km/h (0 Bft)
04.04.2009 22:00 20,3 C 11,9 C 49 % 72 % 1021,7 hPa 0,0 l/m 0,0 km/h (0 Bft)
04.04.2009 23:00 20,2 C 11,8 C 49 % 72 % 1022,4 hPa 0,0 l/m 0,0 km/h (0 Bft)
05.04.2009 00:00 20,2 C 11,7 C 49 % 73 % 1022,4 hPa 0,0 l/m 0,0 km/h (0 Bft)
05.04.2009 01:00 20,1 C 11,6 C 49 % 74 % 1022,4 hPa 0,0 l/m 0,0 km/h (0 Bft)
05.04.2009 02:00 20,0 C 11,4 C 49 % 75 % 1022,4 hPa 0,0 l/m 0,0 km/h (0 Bft)
05.04.2009 03:00 20,0 C 11,2 C 49 % 75 % 1022,4 hPa 0,0 l/m 0,0 km/h (0 Bft)
05.04.2009 04:00 19,9 C 10,8 C 49 % 77 % 1022,4 hPa 0,0 l/m 0,0 km/h (0 Bft)
05.04.2009 05:00 19,8 C 10,4 C 49 % 77 % 1022,4 hPa 0,0 l/m 0,0 km/h (0 Bft)
05.04.2009 06:00 19,8 C 9,9 C 49 % 78 % 1022,4 hPa 0,0 l/m 0,0 km/h (0 Bft)
05.04.2009 07:00 19,6 C 9,5 C 49 % 79 % 1022,4 hPa 0,0 l/m 0,0 km/h (0 Bft)
05.04.2009 08:00 19,6 C 9,8 C 49 % 81 % 1022,5 hPa 0,0 l/m 0,0 km/h (0 Bft)
05.04.2009 09:00 19,6 C 10,3 C 49 % 81 % 1023,4 hPa 0,0 l/m 0,0 km/h (0 Bft)
05.04.2009 10:00 19,6 C 11,0 C 52 % 81 % 1023,4 hPa 0,0 l/m 0,0 km/h (0 Bft)
05.04.2009 11:00 19,8 C 12,2 C 55 % 79 % 1023,4 hPa 0,0 l/m 0,0 km/h (0 Bft)
05.04.2009 12:00 19,7 C 13,2 C 54 % 74 % 1023,4 hPa 0,0 l/m 0,0 km/h (0 Bft)
05.04.2009 13:00 19,7 C 13,8 C 53 % 70 % 1023,4 hPa 0,0 l/m 0,0 km/h (0 Bft)
05.04.2009 14:00 19,6 C 13,5 C 52 % 71 % 1022,9 hPa 0,0 l/m 0,1 km/h (0 Bft)
05.04.2009 15:00 19,8 C 14,8 C 51 % 68 % 1022,4 hPa 0,0 l/m 0,0 km/h (0 Bft)
05.04.2009 16:00 19,8 C 15,5 C 52 % 65 % 1021,8 hPa 0,0 l/m 0,0 km/h (0 Bft)
05.04.2009 17:00 19,8 C 15,3 C 53 % 64 % 1021,3 hPa 0,0 l/m 0,0 km/h (0 Bft)
05.04.2009 18:00 19,8 C 15,0 C 53 % 64 % 1020,5 hPa 0,0 l/m 0,0 km/h (0 Bft)
05.04.2009 19:00 19,9 C 14,2 C 53 % 65 % 1020,4 hPa 0,0 l/m 0,0 km/h (0 Bft)
05.04.2009 20:00 19,8 C 12,5 C 52 % 69 % 1020,4 hPa 0,0 l/m 0,0 km/h (0 Bft)
05.04.2009 21:00 19,7 C 10,9 C 51 % 72 % 1020,4 hPa 0,0 l/m 0,0 km/h (0 Bft)
05.04.2009 22:00 19,6 C 9,7 C 50 % 74 % 1020,4 hPa 0,0 l/m 0,0 km/h (0 Bft)
05.04.2009 23:00 19,6 C 8,8 C 50 % 76 % 1020,4 hPa 0,0 l/m 0,0 km/h (0 Bft)
Min-Datum _ 30.03.09 31.03.09 30.03.09 01.04.09 03.04.09 - 30.03.09
_ Min-Zeit 10:06 07:28 16:48 15:34 17:22 - 00:00
Minimum _ 16,8 C -0,6 C 38 % 41 % 1013,2 hPa - 0,0 km/h (0 Bft)
Max-Datum _ 03.04.09 03.04.09 05.04.09 30.03.09 31.03.09 30.03.09 31.03.09
_ Max-Zeit 23:30 16:50 11:20 10:12 02:02 00:00 15:50
Maximum _ 21,0 C 24,8 C 55 % 87 % 1024,6 hPa 0,0 l/m 46,3 km/h
W (6 Bft)
Durchschnitt _ 18,6 C 10,7 C 45 % 67 % 1019,3 hPa #0,0 l/m 0,6 km/h (0 Bft)
© 2012 W. Hausmann